Time;durP1;ratioP1;P1;durP2;ratioP2;P2;SDS_P1;SDS_P2;PMS_P1;PMS_P2;Temp;Humidity;BMP_temperature;BMP_pressure;BME280_temperature;BME280_humidity;BME280_pressure;Samples;Min_cycle;Max_cycle;Signal;HPM_P1;HPM_P2
2021/01/30 00:00:06;;;;;;;4.05;1.20;;;;;;;;;;5128446;27;20055;-60
2021/01/30 00:02:31;;;;;;;4.70;1.27;;;;;;;;;;5127234;27;20404;-60
2021/01/30 00:04:57;;;;;;;7.40;1.48;;;;;;;;;;5128070;27;20062;-60
2021/01/30 00:07:22;;;;;;;3.85;1.40;;;;;;;;;;5125111;27;20116;-60
2021/01/30 00:09:49;;;;;;;4.63;1.60;;;;;;;;;;5127486;27;20033;-60
2021/01/30 00:12:14;;;;;;;4.20;1.13;;;;;;;;;;5125971;27;20330;-60
2021/01/30 00:14:40;;;;;;;2.38;1.10;;;;;;;;;;5125699;27;20632;-60
2021/01/30 00:17:07;;;;;;;5.97;1.70;;;;;;;;;;5126948;27;20071;-60
2021/01/30 00:19:33;;;;;;;5.05;1.85;;;;;;;;;;5126472;27;20035;-60
2021/01/30 00:22:02;;;;;;;6.90;1.45;;;;;;;;;;5127331;27;20084;-60
2021/01/30 00:24:28;;;;;;;4.40;1.85;;;;;;;;;;5127650;27;20042;-60
2021/01/30 00:26:56;;;;;;;4.53;1.50;;;;;;;;;;5131542;27;20031;-60
2021/01/30 00:29:23;;;;;;;7.95;1.88;;;;;;;;;;5112760;27;20092;-60
2021/01/30 00:31:48;;;;;;;6.00;1.67;;;;;;;;;;5131178;27;20045;-60
2021/01/30 00:34:15;;;;;;;3.58;1.35;;;;;;;;;;5130072;27;20121;-60
2021/01/30 00:36:40;;;;;;;3.97;1.50;;;;;;;;;;5131004;27;20036;-60
2021/01/30 00:39:07;;;;;;;4.63;1.80;;;;;;;;;;5131529;27;20031;-59
2021/01/30 00:41:32;;;;;;;4.97;1.70;;;;;;;;;;5129490;27;20087;-60
2021/01/30 00:43:59;;;;;;;2.63;1.00;;;;;;;;;;5130992;27;20448;-60
2021/01/30 00:46:25;;;;;;;8.60;1.98;;;;;;;;;;5131164;27;20147;-59
2021/01/30 00:48:50;;;;;;;4.72;1.98;;;;;;;;;;5130673;27;20091;-60
2021/01/30 00:51:18;;;;;;;3.78;1.55;;;;;;;;;;5128625;27;20039;-60
2021/01/30 00:53:43;;;;;;;4.07;1.50;;;;;;;;;;5130940;27;20039;-60
2021/01/30 00:56:11;;;;;;;8.32;1.75;;;;;;;;;;5130997;27;20168;-60
2021/01/30 00:58:36;;;;;;;6.93;1.95;;;;;;;;;;5130309;27;20069;-60
2021/01/30 01:01:02;;;;;;;4.40;1.67;;;;;;;;;;5130371;27;20440;-60
2021/01/30 01:03:27;;;;;;;9.90;2.22;;;;;;;;;;5130842;27;20035;-59
2021/01/30 01:05:52;;;;;;;3.85;1.40;;;;;;;;;;5130886;27;20030;-60
2021/01/30 01:08:18;;;;;;;5.75;1.60;;;;;;;;;;5130946;27;20368;-60
2021/01/30 01:10:43;;;;;;;3.70;1.55;;;;;;;;;;5130731;27;20530;-59
2021/01/30 01:13:09;;;;;;;3.97;1.30;;;;;;;;;;5130501;27;20073;-59
2021/01/30 01:15:34;;;;;;;4.75;1.33;;;;;;;;;;5130644;27;20047;-59
2021/01/30 01:18:00;;;;;;;6.72;1.80;;;;;;;;;;5127888;27;20043;-59
2021/01/30 01:20:25;;;;;;;5.00;1.83;;;;;;;;;;5129913;27;20087;-59
2021/01/30 01:22:51;;;;;;;5.50;1.70;;;;;;;;;;5130543;27;20058;-60
2021/01/30 01:25:19;;;;;;;7.78;1.63;;;;;;;;;;5130837;27;20329;-59
2021/01/30 01:27:45;;;;;;;6.40;1.83;;;;;;;;;;5110546;27;20050;-60
2021/01/30 01:30:11;;;;;;;4.88;1.50;;;;;;;;;;5130644;27;20794;-60
2021/01/30 01:32:37;;;;;;;9.85;2.08;;;;;;;;;;5129990;27;20050;-60
2021/01/30 01:35:04;;;;;;;5.82;1.42;;;;;;;;;;5129854;27;20019;-60
2021/01/30 01:37:29;;;;;;;4.90;1.77;;;;;;;;;;5128777;27;20262;-60
2021/01/30 01:39:54;;;;;;;2.53;1.20;;;;;;;;;;5128728;27;20038;-60
2021/01/30 01:42:23;;;;;;;3.63;1.33;;;;;;;;;;5130245;27;20163;-60
2021/01/30 01:44:50;;;;;;;5.13;1.50;;;;;;;;;;5130029;27;20035;-60
2021/01/30 01:47:22;;;;;;;2.38;1.00;;;;;;;;;;5130129;27;20627;-60
2021/01/30 01:49:49;;;;;;;4.22;1.70;;;;;;;;;;5130110;27;20067;-60
2021/01/30 01:52:22;;;;;;;5.75;1.60;;;;;;;;;;5131501;27;20031;-60
2021/01/30 01:54:55;;;;;;;6.00;1.55;;;;;;;;;;5129310;27;20050;-60
2021/01/30 01:57:21;;;;;;;3.85;1.50;;;;;;;;;;5127650;27;20202;-60
2021/01/30 01:59:52;;;;;;;11.20;1.83;;;;;;;;;;5129049;27;20023;-60
2021/01/30 02:02:17;;;;;;;5.45;1.63;;;;;;;;;;5130267;27;20031;-59
2021/01/30 02:04:54;;;;;;;4.97;1.50;;;;;;;;;;5127023;27;20039;-60
2021/01/30 02:07:20;;;;;;;4.55;1.42;;;;;;;;;;5129511;27;20065;-59
2021/01/30 02:09:45;;;;;;;5.68;2.08;;;;;;;;;;5128135;27;20144;-59
2021/01/30 02:12:12;;;;;;;3.30;1.08;;;;;;;;;;5128617;27;20031;-60
2021/01/30 02:14:45;;;;;;;4.97;1.48;;;;;;;;;;5128531;27;20063;-59
2021/01/30 02:17:47;;;;;;;5.20;1.50;;;;;;;;;;5129768;27;20038;-60
2021/01/30 02:20:13;;;;;;;3.42;1.38;;;;;;;;;;5127876;27;20112;-60
2021/01/30 02:22:53;;;;;;;5.78;1.63;;;;;;;;;;5127823;27;20444;-59
2021/01/30 02:25:58;;;;;;;3.25;1.25;;;;;;;;;;5129702;27;20041;-59
2021/01/30 02:28:33;;;;;;;4.75;1.33;;;;;;;;;;5128337;27;20031;-60
2021/01/30 02:31:28;;;;;;;4.07;1.42;;;;;;;;;;5129162;27;20672;-60
2021/01/30 02:34:15;;;;;;;4.80;1.50;;;;;;;;;;5110969;27;20341;-60
2021/01/30 02:36:45;;;;;;;4.13;1.52;;;;;;;;;;5129277;27;20035;-60
2021/01/30 02:39:25;;;;;;;6.07;2.42;;;;;;;;;;5108560;27;20119;-60
2021/01/30 02:42:06;;;;;;;4.35;1.50;;;;;;;;;;5128871;27;20038;-60
2021/01/30 02:44:35;;;;;;;3.55;1.42;;;;;;;;;;5128129;27;20042;-60
2021/01/30 02:47:00;;;;;;;5.97;1.23;;;;;;;;;;5110256;27;20051;-60
2021/01/30 02:49:31;;;;;;;9.93;1.60;;;;;;;;;;5128115;27;20065;-60
2021/01/30 02:52:00;;;;;;;;;;;;;;;;;;5128549;27;20083;-60
2021/01/30 02:54:26;;;;;;;6.07;1.38;;;;;;;;;;5128597;27;19915;-60
2021/01/30 02:56:54;;;;;;;4.40;1.40;;;;;;;;;;5127651;27;20082;-61
2021/01/30 02:59:22;;;;;;;4.25;1.50;;;;;;;;;;5128496;27;20364;-60
2021/01/30 03:01:48;;;;;;;4.15;1.38;;;;;;;;;;5127914;27;20046;-60
2021/01/30 03:04:18;;;;;;;3.95;1.05;;;;;;;;;;5129867;27;20487;-60
2021/01/30 03:07:27;;;;;;;3.95;1.27;;;;;;;;;;5129029;27;20043;-60
2021/01/30 03:10:19;;;;;;;6.03;1.48;;;;;;;;;;5095381;27;20099;-60
2021/01/30 03:12:55;;;;;;;4.07;1.00;;;;;;;;;;5128356;27;20400;-60
2021/01/30 03:15:21;;;;;;;5.68;1.48;;;;;;;;;;5109491;27;20122;-60
2021/01/30 03:17:47;;;;;;;4.47;1.08;;;;;;;;;;5127791;27;20126;-60
2021/01/30 03:20:14;;;;;;;3.33;1.20;;;;;;;;;;5126032;27;20105;-60
2021/01/30 03:22:41;;;;;;;3.53;1.55;;;;;;;;;;5127734;27;20106;-60
2021/01/30 03:25:07;;;;;;;6.15;2.10;;;;;;;;;;5128205;27;20373;-60
2021/01/30 03:27:34;;;;;;;7.25;2.00;;;;;;;;;;5119035;27;20479;-60
2021/01/30 03:30:05;;;;;;;6.03;1.98;;;;;;;;;;5128788;27;20027;-60
2021/01/30 03:32:30;;;;;;;4.88;1.15;;;;;;;;;;5126248;27;20428;-60
2021/01/30 03:34:58;;;;;;;5.40;2.05;;;;;;;;;;5128293;27;20125;-60
2021/01/30 03:37:24;;;;;;;7.60;1.58;;;;;;;;;;5128082;27;20061;-60
2021/01/30 03:39:49;;;;;;;7.57;1.50;;;;;;;;;;5127036;27;20382;-61
2021/01/30 03:42:15;;;;;;;5.30;1.88;;;;;;;;;;5126358;27;20027;-60
2021/01/30 03:44:41;;;;;;;9.07;2.33;;;;;;;;;;5127888;27;20080;-60
2021/01/30 03:47:06;;;;;;;6.28;1.50;;;;;;;;;;5128173;27;20039;-60
2021/01/30 03:49:32;;;;;;;4.20;1.48;;;;;;;;;;5126629;27;20390;-60
2021/01/30 03:51:57;;;;;;;4.07;1.40;;;;;;;;;;5128314;27;20070;-60
2021/01/30 03:54:23;;;;;;;4.57;1.67;;;;;;;;;;5108524;27;20384;-60
2021/01/30 03:56:48;;;;;;;6.20;1.60;;;;;;;;;;5127952;27;20511;-60
2021/01/30 03:59:21;;;;;;;3.22;1.20;;;;;;;;;;5129941;27;20027;-60
2021/01/30 04:01:46;;;;;;;7.63;1.27;;;;;;;;;;5132765;27;20023;-60
2021/01/30 04:04:12;;;;;;;4.60;1.17;;;;;;;;;;5128248;27;20058;-60
2021/01/30 04:06:37;;;;;;;4.47;1.10;;;;;;;;;;5130255;27;20075;-60
2021/01/30 04:09:05;;;;;;;3.08;1.17;;;;;;;;;;5131283;27;20142;-60
2021/01/30 04:11:32;;;;;;;4.25;0.95;;;;;;;;;;5131125;27;20039;-60
2021/01/30 04:13:58;;;;;;;5.18;1.10;;;;;;;;;;5131125;27;20456;-60
2021/01/30 04:16:24;;;;;;;5.03;3.25;;;;;;;;;;5130278;27;20043;-60
2021/01/30 04:18:50;;;;;;;5.80;2.95;;;;;;;;;;5132104;27;20037;-60
2021/01/30 04:21:15;;;;;;;3.63;1.15;;;;;;;;;;5131115;27;20035;-60
2021/01/30 04:23:44;;;;;;;5.03;2.55;;;;;;;;;;5131131;27;20039;-60
2021/01/30 04:26:10;;;;;;;9.30;4.85;;;;;;;;;;5131452;27;20043;-60
2021/01/30 04:28:35;;;;;;;3.90;1.13;;;;;;;;;;5130288;27;20042;-60
2021/01/30 04:31:01;;;;;;;3.00;0.95;;;;;;;;;;5131220;27;20120;-60
2021/01/30 04:33:26;;;;;;;4.05;0.90;;;;;;;;;;5128963;27;20019;-61
2021/01/30 04:35:52;;;;;;;4.90;1.00;;;;;;;;;;5130909;27;20023;-60
2021/01/30 04:38:17;;;;;;;1.58;0.73;;;;;;;;;;5131063;27;20059;-59
2021/01/30 04:40:45;;;;;;;2.45;1.08;;;;;;;;;;5130857;27;20019;-60
2021/01/30 04:43:22;;;;;;;3.35;1.17;;;;;;;;;;5131096;27;20039;-60
2021/01/30 04:46:04;;;;;;;2.63;1.00;;;;;;;;;;5130725;27;20896;-60
2021/01/30 04:48:45;;;;;;;2.60;0.93;;;;;;;;;;5130214;27;20049;-61
2021/01/30 04:51:23;;;;;;;3.67;1.33;;;;;;;;;;5095027;27;20035;-60
2021/01/30 04:54:04;;;;;;;4.43;2.58;;;;;;;;;;5130654;27;20118;-60
2021/01/30 04:56:48;;;;;;;4.38;2.42;;;;;;;;;;5130063;27;20056;-60
2021/01/30 04:59:13;;;;;;;4.82;1.60;;;;;;;;;;5131068;27;20031;-59
2021/01/30 05:01:57;;;;;;;5.63;2.05;;;;;;;;;;5131220;27;20470;-59
2021/01/30 05:04:27;;;;;;;7.30;1.80;;;;;;;;;;5129802;27;20035;-60
2021/01/30 05:06:59;;;;;;;4.25;1.95;;;;;;;;;;5129885;27;20035;-59
2021/01/30 05:09:40;;;;;;;2.70;1.17;;;;;;;;;;5129015;27;20108;-60
2021/01/30 05:12:15;;;;;;;1.42;0.70;;;;;;;;;;5131312;27;20046;-60
2021/01/30 05:15:07;;;;;;;1.95;0.90;;;;;;;;;;5130116;27;20023;-60
2021/01/30 05:17:38;;;;;;;2.67;0.90;;;;;;;;;;5129542;27;20039;-60
2021/01/30 05:20:08;;;;;;;2.00;0.75;;;;;;;;;;5131482;27;20510;-60
2021/01/30 05:22:43;;;;;;;1.43;0.70;;;;;;;;;;5129695;27;20088;-60
2021/01/30 05:25:11;;;;;;;2.28;0.90;;;;;;;;;;5130403;27;20035;-60
2021/01/30 05:28:08;;;;;;;8.18;5.00;;;;;;;;;;5126704;27;20500;-60
2021/01/30 05:30:33;;;;;;;4.10;1.50;;;;;;;;;;5128920;27;20166;-60
2021/01/30 05:33:15;;;;;;;6.22;4.18;;;;;;;;;;5130283;27;20649;-60
2021/01/30 05:35:47;;;;;;;4.22;1.10;;;;;;;;;;5128434;27;20403;-60
2021/01/30 05:38:31;;;;;;;3.50;1.10;;;;;;;;;;5131407;27;20027;-60
2021/01/30 05:41:10;;;;;;;6.55;1.10;;;;;;;;;;5129700;27;20486;-60
2021/01/30 05:43:49;;;;;;;3.55;1.20;;;;;;;;;;5128913;27;20035;-60
2021/01/30 05:46:28;;;;;;;1.92;0.70;;;;;;;;;;5129971;27;20467;-60
2021/01/30 05:48:56;;;;;;;1.80;0.65;;;;;;;;;;5129590;27;20071;-60
2021/01/30 05:51:35;;;;;;;3.65;1.02;;;;;;;;;;5129382;27;20041;-60
2021/01/30 05:54:01;;;;;;;1.77;0.75;;;;;;;;;;5128809;27;20110;-60
2021/01/30 05:56:30;;;;;;;2.38;0.70;;;;;;;;;;5129687;27;20481;-60
2021/01/30 05:58:55;;;;;;;3.50;1.08;;;;;;;;;;5130170;27;20058;-60
2021/01/30 06:01:28;;;;;;;3.00;0.95;;;;;;;;;;5129753;27;20051;-60
2021/01/30 06:04:02;;;;;;;3.10;0.85;;;;;;;;;;5108587;27;20185;-60
2021/01/30 06:06:32;;;;;;;2.47;0.80;;;;;;;;;;5110875;27;20051;-61
2021/01/30 06:09:37;;;;;;;3.35;1.00;;;;;;;;;;5109855;27;20102;-60
2021/01/30 06:12:19;;;;;;;2.63;0.88;;;;;;;;;;5107335;27;20736;-61
2021/01/30 06:14:46;;;;;;;2.22;0.95;;;;;;;;;;5127043;27;20041;-61
2021/01/30 06:17:16;;;;;;;2.47;1.10;;;;;;;;;;5129961;27;20042;-61
2021/01/30 06:19:42;;;;;;;4.50;0.98;;;;;;;;;;5128451;27;20492;-61
2021/01/30 06:22:15;;;;;;;2.08;0.93;;;;;;;;;;5129017;27;20035;-61
2021/01/30 06:24:47;;;;;;;3.15;0.90;;;;;;;;;;5128490;27;20027;-61
2021/01/30 06:27:39;;;;;;;4.00;1.20;;;;;;;;;;5127588;27;20027;-61
2021/01/30 06:30:26;;;;;;;3.38;1.10;;;;;;;;;;5118470;27;20138;-61
2021/01/30 06:32:59;;;;;;;2.58;0.80;;;;;;;;;;5129193;27;20023;-61
2021/01/30 06:35:31;;;;;;;3.75;1.27;;;;;;;;;;5128732;27;20125;-62
2021/01/30 06:38:18;;;;;;;2.80;0.93;;;;;;;;;;5129447;27;20038;-62
2021/01/30 06:40:56;;;;;;;6.47;1.42;;;;;;;;;;5129292;27;20115;-61
2021/01/30 06:43:27;;;;;;;5.40;2.00;;;;;;;;;;5127609;27;20486;-61
2021/01/30 06:46:03;;;;;;;5.50;1.67;;;;;;;;;;5128298;27;20035;-61
2021/01/30 06:48:39;;;;;;;8.85;1.63;;;;;;;;;;5126440;27;20035;-61
2021/01/30 06:51:40;;;;;;;10.98;2.33;;;;;;;;;;5130227;27;20388;-61
2021/01/30 06:54:27;;;;;;;5.68;1.90;;;;;;;;;;5064589;28;20047;-60
2021/01/30 06:56:58;;;;;;;7.30;1.95;;;;;;;;;;5121433;27;20544;-60
2021/01/30 06:59:27;;;;;;;7.78;2.00;;;;;;;;;;5129702;27;20034;-61
2021/01/30 07:01:54;;;;;;;11.27;2.17;;;;;;;;;;5128788;27;20039;-60
2021/01/30 07:04:50;;;;;;;7.55;2.15;;;;;;;;;;5126855;27;20031;-60
2021/01/30 07:07:48;;;;;;;8.15;2.67;;;;;;;;;;5128010;27;20036;-60
2021/01/30 07:10:22;;;;;;;8.43;2.40;;;;;;;;;;5126686;27;20096;-60
2021/01/30 07:13:00;;;;;;;7.82;2.13;;;;;;;;;;5127039;27;20127;-60
2021/01/30 07:15:31;;;;;;;10.48;2.85;;;;;;;;;;5127279;27;20063;-60
2021/01/30 07:18:10;;;;;;;10.27;2.85;;;;;;;;;;5126437;27;20038;-60
2021/01/30 07:20:58;;;;;;;11.27;2.75;;;;;;;;;;5127297;27;20043;-60
2021/01/30 07:23:33;;;;;;;11.98;3.25;;;;;;;;;;5127291;27;20055;-60
2021/01/30 07:26:22;;;;;;;9.40;2.88;;;;;;;;;;5126887;27;20056;-60
2021/01/30 07:29:04;;;;;;;11.48;2.47;;;;;;;;;;5127193;27;20042;-60
2021/01/30 07:31:33;;;;;;;13.05;2.63;;;;;;;;;;5126515;27;20046;-60
2021/01/30 07:34:04;;;;;;;8.15;2.30;;;;;;;;;;5127679;27;20459;-60
2021/01/30 07:36:41;;;;;;;8.90;2.28;;;;;;;;;;5127694;27;20061;-60
2021/01/30 07:39:28;;;;;;;12.13;3.03;;;;;;;;;;5122255;27;20039;-61
2021/01/30 07:42:14;;;;;;;4.95;1.85;;;;;;;;;;5128147;27;20114;-60
2021/01/30 07:45:01;;;;;;;16.50;3.17;;;;;;;;;;5126931;27;20043;-61
2021/01/30 07:47:37;;;;;;;8.32;2.50;;;;;;;;;;5125867;27;20023;-60
2021/01/30 07:50:07;;;;;;;12.60;2.60;;;;;;;;;;5127033;27;20497;-60
2021/01/30 07:52:50;;;;;;;12.95;2.72;;;;;;;;;;5128753;27;20035;-60
2021/01/30 07:55:15;;;;;;;10.07;2.42;;;;;;;;;;5127081;27;20035;-61
2021/01/30 07:58:22;;;;;;;8.98;2.53;;;;;;;;;;5128452;27;20039;-60
2021/01/30 08:01:03;;;;;;;8.15;2.58;;;;;;;;;;5127254;27;20027;-61
2021/01/30 08:03:56;;;;;;;11.15;3.15;;;;;;;;;;5127955;27;20035;-61
2021/01/30 08:06:38;;;;;;;12.35;3.58;;;;;;;;;;5128137;27;20047;-61
2021/01/30 08:09:24;;;;;;;13.10;4.43;;;;;;;;;;5119131;28;20762;-61
2021/01/30 08:12:21;;;;;;;15.00;4.70;;;;;;;;;;5123610;28;20043;-61
2021/01/30 08:15:10;;;;;;;15.85;3.53;;;;;;;;;;5120268;27;20099;-61
2021/01/30 08:18:03;;;;;;;8.02;3.00;;;;;;;;;;5124951;27;20043;-61
2021/01/30 08:20:38;;;;;;;8.25;2.17;;;;;;;;;;5127862;27;20027;-61
2021/01/30 08:23:34;;;;;;;8.10;2.45;;;;;;;;;;5126038;27;20039;-61
2021/01/30 08:26:08;;;;;;;12.48;3.20;;;;;;;;;;5128132;27;20058;-61
2021/01/30 08:29:06;;;;;;;7.50;2.30;;;;;;;;;;5128210;27;20070;-60
2021/01/30 08:31:37;;;;;;;8.05;2.67;;;;;;;;;;5105962;27;20078;-60
2021/01/30 08:34:04;;;;;;;12.93;2.50;;;;;;;;;;5128212;27;20539;-60
2021/01/30 08:36:33;;;;;;;11.20;3.28;;;;;;;;;;5126333;27;20474;-60
2021/01/30 08:39:17;;;;;;;10.80;4.30;;;;;;;;;;5126660;27;20508;-60
2021/01/30 08:41:47;;;;;;;14.82;4.68;;;;;;;;;;5101521;28;20028;-60
2021/01/30 08:44:50;;;;;;;12.68;4.68;;;;;;;;;;5113335;27;20031;-60
2021/01/30 08:47:21;;;;;;;12.55;5.28;;;;;;;;;;5109906;27;20539;-60
2021/01/30 08:50:03;;;;;;;13.57;4.33;;;;;;;;;;5127989;27;20031;-60
2021/01/30 08:52:37;;;;;;;10.27;3.65;;;;;;;;;;5127283;27;20039;-60
2021/01/30 08:55:44;;;;;;;11.55;3.45;;;;;;;;;;5107787;27;20054;-60
2021/01/30 08:58:37;;;;;;;9.07;3.33;;;;;;;;;;5081971;27;20047;-60
2021/01/30 09:01:08;;;;;;;3.95;1.75;;;;;;;;;;5126337;27;20070;-60
2021/01/30 09:03:40;;;;;;;2.40;1.40;;;;;;;;;;5123771;27;20090;-60
2021/01/30 09:06:08;;;;;;;5.20;1.63;;;;;;;;;;5117699;27;20071;-60
2021/01/30 09:08:42;;;;;;;3.80;1.80;;;;;;;;;;5126249;27;20062;-60
2021/01/30 09:11:35;;;;;;;2.08;1.25;;;;;;;;;;5109865;27;20026;-59
2021/01/30 09:14:14;;;;;;;3.78;2.08;;;;;;;;;;5125050;27;20460;-59
2021/01/30 09:16:44;;;;;;;3.13;2.10;;;;;;;;;;5125429;27;20369;-59
2021/01/30 09:19:23;;;;;;;4.68;3.05;;;;;;;;;;5125063;27;20043;-59
2021/01/30 09:21:56;;;;;;;4.20;3.08;;;;;;;;;;5124491;27;20497;-58
2021/01/30 09:24:48;;;;;;;5.13;3.88;;;;;;;;;;5123323;27;20043;-59
2021/01/30 09:27:21;;;;;;;6.88;4.40;;;;;;;;;;5127483;27;20032;-58
2021/01/30 09:29:49;;;;;;;6.05;4.65;;;;;;;;;;5120825;27;20078;-59
2021/01/30 09:32:23;;;;;;;6.82;5.63;;;;;;;;;;5118565;27;20028;-58
2021/01/30 09:34:51;;;;;;;7.55;6.13;;;;;;;;;;5125412;27;20043;-58
2021/01/30 09:37:32;;;;;;;7.53;6.10;;;;;;;;;;5122883;27;20051;-58
2021/01/30 09:39:58;;;;;;;7.68;6.63;;;;;;;;;;5120540;27;20036;-59
2021/01/30 09:42:25;;;;;;;8.15;7.03;;;;;;;;;;5123953;27;20442;-58
2021/01/30 09:45:01;;;;;;;8.38;7.38;;;;;;;;;;5128075;27;20035;-59
2021/01/30 09:47:27;;;;;;;8.40;7.40;;;;;;;;;;5129758;27;20035;-59
2021/01/30 09:50:07;;;;;;;8.25;6.65;;;;;;;;;;5129724;27;20477;-59
2021/01/30 09:52:33;;;;;;;9.57;8.30;;;;;;;;;;5128996;27;20042;-59
2021/01/30 09:55:09;;;;;;;9.30;7.32;;;;;;;;;;5129128;27;20035;-59
2021/01/30 09:57:37;;;;;;;10.38;8.00;;;;;;;;;;5126670;27;20042;-58
2021/01/30 10:00:13;;;;;;;10.20;9.13;;;;;;;;;;5122481;27;20345;-58
2021/01/30 10:02:38;;;;;;;9.98;8.38;;;;;;;;;;5125721;27;20534;-58
2021/01/30 10:05:14;;;;;;;10.40;8.48;;;;;;;;;;5127999;27;20035;-58
2021/01/30 10:07:40;;;;;;;9.50;8.15;;;;;;;;;;5125233;27;20027;-59
2021/01/30 10:10:26;;;;;;;8.93;7.63;;;;;;;;;;5126311;27;20134;-59
2021/01/30 10:12:53;;;;;;;12.38;8.18;;;;;;;;;;5126949;27;20042;-59
2021/01/30 10:15:27;;;;;;;8.88;7.88;;;;;;;;;;5127564;27;20039;-59
2021/01/30 10:17:52;;;;;;;10.40;8.75;;;;;;;;;;5106344;27;20063;-59
2021/01/30 10:20:18;;;;;;;11.20;8.73;;;;;;;;;;5125709;27;20407;-59
2021/01/30 10:22:46;;;;;;;9.45;8.13;;;;;;;;;;5125564;27;20027;-59
2021/01/30 10:25:25;;;;;;;9.13;7.60;;;;;;;;;;5125531;27;20098;-59
2021/01/30 10:28:04;;;;;;;10.85;8.50;;;;;;;;;;5126882;27;20088;-59
2021/01/30 10:30:30;;;;;;;9.57;8.30;;;;;;;;;;5107456;27;20107;-59
2021/01/30 10:32:57;;;;;;;9.00;7.75;;;;;;;;;;5124421;27;20062;-59
2021/01/30 10:35:30;;;;;;;10.18;9.10;;;;;;;;;;5115954;27;20058;-63
2021/01/30 10:38:06;;;;;;;8.35;7.45;;;;;;;;;;5121046;27;20121;-60
2021/01/30 10:40:40;;;;;;;9.40;8.40;;;;;;;;;;5121156;27;20066;-59
2021/01/30 10:43:13;;;;;;;9.20;7.75;;;;;;;;;;5106834;27;20027;-59
2021/01/30 10:45:41;;;;;;;9.48;8.23;;;;;;;;;;5125908;27;20118;-59
2021/01/30 10:48:10;;;;;;;10.88;8.90;;;;;;;;;;5126683;27;20448;-59
2021/01/30 10:50:42;;;;;;;10.25;9.05;;;;;;;;;;5124685;27;20118;-59
2021/01/30 10:53:28;;;;;;;13.68;10.65;;;;;;;;;;5127097;27;20190;-59
2021/01/30 10:55:54;;;;;;;13.05;10.00;;;;;;;;;;5108043;27;20046;-59
2021/01/30 10:58:25;;;;;;;11.07;8.73;;;;;;;;;;5124441;27;20376;-59
2021/01/30 11:01:00;;;;;;;10.82;9.68;;;;;;;;;;5124719;27;20039;-59
2021/01/30 11:03:51;;;;;;;10.65;9.05;;;;;;;;;;5121587;27;20035;-59
2021/01/30 11:06:45;;;;;;;10.35;9.25;;;;;;;;;;5126401;27;20062;-59
2021/01/30 11:09:21;;;;;;;9.20;8.15;;;;;;;;;;5126165;27;20115;-60
2021/01/30 11:11:49;;;;;;;9.88;8.88;;;;;;;;;;5126257;27;20058;-59
2021/01/30 11:14:19;;;;;;;8.80;7.82;;;;;;;;;;5124615;27;20128;-59
2021/01/30 11:16:45;;;;;;;11.60;8.43;;;;;;;;;;5125721;27;20095;-59
2021/01/30 11:19:16;;;;;;;11.90;9.50;;;;;;;;;;5126340;27;20480;-59
2021/01/30 11:21:42;;;;;;;12.32;9.25;;;;;;;;;;5124220;27;20376;-59
2021/01/30 11:24:26;;;;;;;8.98;7.97;;;;;;;;;;5115389;27;20476;-59
2021/01/30 11:26:51;;;;;;;9.93;8.90;;;;;;;;;;5124052;27;20420;-58
2021/01/30 11:29:41;;;;;;;10.73;9.20;;;;;;;;;;5121891;27;20047;-59
2021/01/30 11:32:10;;;;;;;11.48;9.05;;;;;;;;;;5124955;27;20039;-59
2021/01/30 11:34:36;;;;;;;10.32;9.23;;;;;;;;;;5125864;27;20228;-59
2021/01/30 11:37:02;;;;;;;8.45;7.55;;;;;;;;;;5124851;27;20130;-59
2021/01/30 11:39:30;;;;;;;9.48;8.40;;;;;;;;;;5124259;27;20062;-58
2021/01/30 11:41:56;;;;;;;10.00;9.00;;;;;;;;;;5120632;27;20695;-59
2021/01/30 11:44:22;;;;;;;10.68;9.50;;;;;;;;;;5126480;27;20042;-60
2021/01/30 11:46:48;;;;;;;11.88;8.15;;;;;;;;;;5124308;27;20108;-60
2021/01/30 11:49:14;;;;;;;10.27;9.18;;;;;;;;;;5124701;27;20559;-60
2021/01/30 11:51:39;;;;;;;9.63;8.40;;;;;;;;;;5124459;27;20119;-60
2021/01/30 11:54:05;;;;;;;9.88;8.48;;;;;;;;;;5126246;27;20403;-60
2021/01/30 11:56:30;;;;;;;11.48;8.52;;;;;;;;;;5124699;27;20051;-60
2021/01/30 11:58:55;;;;;;;9.68;8.48;;;;;;;;;;5123178;27;20040;-61
2021/01/30 12:01:21;;;;;;;10.23;8.82;;;;;;;;;;5125940;27;20107;-59
2021/01/30 12:03:46;;;;;;;9.63;8.63;;;;;;;;;;5124282;27;20051;-60
2021/01/30 12:06:12;;;;;;;8.48;7.57;;;;;;;;;;5125347;27;20035;-60
2021/01/30 12:08:38;;;;;;;10.80;8.60;;;;;;;;;;5123655;27;20036;-60
2021/01/30 12:11:04;;;;;;;9.48;8.45;;;;;;;;;;5125780;27;20042;-60
2021/01/30 12:13:29;;;;;;;13.90;9.88;;;;;;;;;;5125249;27;20035;-60
2021/01/30 12:15:55;;;;;;;10.60;8.65;;;;;;;;;;5118445;27;20379;-60
2021/01/30 12:18:20;;;;;;;9.43;8.43;;;;;;;;;;5123814;27;20031;-60
2021/01/30 12:20:49;;;;;;;8.60;7.65;;;;;;;;;;5126267;27;20030;-61
2021/01/30 12:23:14;;;;;;;8.77;7.88;;;;;;;;;;5127187;27;20403;-60
2021/01/30 12:25:40;;;;;;;9.63;8.63;;;;;;;;;;5126491;27;20057;-60
2021/01/30 12:28:06;;;;;;;9.80;8.15;;;;;;;;;;5129835;27;20544;-61
2021/01/30 12:30:35;;;;;;;10.90;9.32;;;;;;;;;;5128867;27;20120;-60
2021/01/30 12:33:00;;;;;;;9.40;8.40;;;;;;;;;;5126051;27;20774;-61
2021/01/30 12:35:28;;;;;;;9.10;7.90;;;;;;;;;;5125738;27;20039;-60
2021/01/30 12:37:54;;;;;;;8.60;7.55;;;;;;;;;;5127380;27;20031;-59
2021/01/30 12:40:22;;;;;;;9.27;6.72;;;;;;;;;;5128119;27;20121;-60
2021/01/30 12:42:48;;;;;;;7.72;6.93;;;;;;;;;;5126995;27;20039;-60
2021/01/30 12:45:14;;;;;;;8.68;7.40;;;;;;;;;;5129174;27;20058;-59
2021/01/30 12:47:41;;;;;;;8.55;6.80;;;;;;;;;;5129187;27;20434;-60
2021/01/30 12:50:08;;;;;;;6.47;5.68;;;;;;;;;;5126486;27;20031;-60
2021/01/30 12:52:33;;;;;;;7.22;5.70;;;;;;;;;;5128244;27;20239;-60
2021/01/30 12:54:58;;;;;;;5.72;4.78;;;;;;;;;;5128793;27;20110;-60
2021/01/30 12:57:24;;;;;;;5.75;5.15;;;;;;;;;;5128008;27;20163;-60
2021/01/30 12:59:49;;;;;;;6.72;5.32;;;;;;;;;;5126823;27;20043;-59
2021/01/30 13:02:14;;;;;;;11.27;5.50;;;;;;;;;;5130236;27;20235;-60
2021/01/30 13:04:40;;;;;;;6.30;5.00;;;;;;;;;;5123882;27;20501;-60
2021/01/30 13:07:05;;;;;;;7.00;5.38;;;;;;;;;;5127001;27;20046;-59
2021/01/30 13:09:33;;;;;;;7.68;6.20;;;;;;;;;;5126401;27;20175;-60
2021/01/30 13:11:58;;;;;;;9.10;6.32;;;;;;;;;;5125061;27;20031;-60
2021/01/30 13:14:24;;;;;;;5.55;4.55;;;;;;;;;;5126241;27;20046;-58
2021/01/30 13:16:49;;;;;;;6.82;6.00;;;;;;;;;;5118759;27;20039;-55
2021/01/30 13:19:16;;;;;;;7.55;6.25;;;;;;;;;;5122828;27;20045;-58
2021/01/30 13:21:50;;;;;;;9.68;6.50;;;;;;;;;;5124017;27;20050;-58
2021/01/30 13:24:16;;;;;;;8.23;6.43;;;;;;;;;;5126707;27;20042;-58
2021/01/30 13:26:41;;;;;;;9.45;6.32;;;;;;;;;;5128581;27;20034;-58
2021/01/30 13:29:08;;;;;;;10.10;5.43;;;;;;;;;;5127113;27;20042;-59
2021/01/30 13:31:45;;;;;;;7.53;6.05;;;;;;;;;;5126743;27;20372;-58
2021/01/30 13:34:10;;;;;;;7.32;5.57;;;;;;;;;;5125586;27;20600;-58
2021/01/30 13:36:36;;;;;;;7.13;5.82;;;;;;;;;;5128566;27;20101;-58
2021/01/30 13:39:03;;;;;;;7.63;5.80;;;;;;;;;;5122102;27;20035;-59
2021/01/30 13:41:28;;;;;;;7.20;5.93;;;;;;;;;;5125956;27;20109;-59
2021/01/30 13:43:54;;;;;;;8.95;6.50;;;;;;;;;;5127733;27;20122;-59
2021/01/30 13:46:19;;;;;;;6.68;5.47;;;;;;;;;;5125553;27;20444;-59
2021/01/30 13:48:45;;;;;;;7.00;5.88;;;;;;;;;;5125468;27;20785;-59
2021/01/30 13:51:10;;;;;;;9.23;6.93;;;;;;;;;;5125166;27;20091;-58
2021/01/30 13:53:35;;;;;;;11.30;6.43;;;;;;;;;;5128847;27;20062;-59
2021/01/30 13:56:01;;;;;;;8.88;6.03;;;;;;;;;;5126842;27;20063;-59
2021/01/30 13:58:27;;;;;;;9.77;6.53;;;;;;;;;;5126556;27;20122;-59
2021/01/30 14:00:52;;;;;;;8.27;6.18;;;;;;;;;;5125452;27;20038;-59
2021/01/30 14:03:17;;;;;;;7.93;4.93;;;;;;;;;;5128546;27;20509;-60
2021/01/30 14:05:43;;;;;;;8.15;6.28;;;;;;;;;;5126548;27;20398;-60
2021/01/30 14:08:08;;;;;;;8.55;6.55;;;;;;;;;;5124208;27;20059;-60
2021/01/30 14:10:34;;;;;;;7.63;5.50;;;;;;;;;;5129020;27;20084;-60
2021/01/30 14:13:00;;;;;;;6.97;6.03;;;;;;;;;;5126718;27;20035;-60
2021/01/30 14:15:25;;;;;;;7.18;6.35;;;;;;;;;;5126137;27;20628;-60
2021/01/30 14:17:51;;;;;;;7.32;6.10;;;;;;;;;;5126559;27;20066;-58
2021/01/30 14:20:17;;;;;;;7.28;6.05;;;;;;;;;;5130616;27;20045;-60
2021/01/30 14:22:43;;;;;;;10.23;6.30;;;;;;;;;;5129350;27;20460;-59
2021/01/30 14:25:08;;;;;;;7.32;6.20;;;;;;;;;;5127429;27;20031;-59
2021/01/30 14:27:34;;;;;;;8.27;6.60;;;;;;;;;;5125556;27;20027;-59
2021/01/30 14:30:00;;;;;;;10.45;6.72;;;;;;;;;;5127718;27;20480;-59
2021/01/30 14:32:25;;;;;;;8.70;6.65;;;;;;;;;;5129534;27;20066;-59
2021/01/30 14:34:51;;;;;;;7.75;6.93;;;;;;;;;;5128485;27;20088;-60
2021/01/30 14:37:16;;;;;;;7.50;6.43;;;;;;;;;;5126871;27;20039;-60
2021/01/30 14:39:41;;;;;;;8.45;6.88;;;;;;;;;;5128338;27;20035;-60
2021/01/30 14:42:07;;;;;;;9.85;6.60;;;;;;;;;;5128013;27;20042;-60
2021/01/30 14:44:32;;;;;;;9.48;7.28;;;;;;;;;;5125664;27;20054;-59
2021/01/30 14:46:58;;;;;;;8.35;6.18;;;;;;;;;;5126386;27;20023;-60
2021/01/30 14:49:23;;;;;;;10.38;7.97;;;;;;;;;;5127913;27;20106;-60
2021/01/30 14:51:49;;;;;;;8.25;7.00;;;;;;;;;;5127158;27;21026;-60
2021/01/30 14:54:14;;;;;;;9.80;7.60;;;;;;;;;;5127738;27;20401;-60
2021/01/30 14:56:43;;;;;;;8.02;7.22;;;;;;;;;;5117991;27;20042;-61
2021/01/30 14:59:08;;;;;;;9.00;7.75;;;;;;;;;;5128114;27;20031;-60
2021/01/30 15:01:33;;;;;;;9.40;7.43;;;;;;;;;;5130048;27;20019;-60
2021/01/30 15:03:59;;;;;;;9.40;7.30;;;;;;;;;;5128110;27;20031;-61
2021/01/30 15:06:24;;;;;;;16.45;7.55;;;;;;;;;;5126572;27;20031;-60